Terminal Aerodrome Forecast
Issued by NWS

Home | Current Version | Previous Version | Text Only | Print | Product List | Glossary On
Versions: 1 2 3 4 5 6 7 8 9 10 11 12 13 14 15 16 17 18 19 20 21 22 23 24 25 26 27 28 29 30 31 32 33
000
FTUS45 KCYS 270523
TAFLAR
TAF
KLAR 270523Z 2706/2806 15004KT P6SM VCSH SCT015 OVC025
     FM270800 10007KT 3SM -RA BR OVC009
     FM271400 09008KT 5SM BR SCT009 OVC012
     FM271800 11013KT P6SM -SHRA SCT012 OVC022=

USA.gov is the U.S. government's official web portal to all federal, state and local government web resources and services.